sensor_id;sensor_type;location;lat;lon;timestamp;pressure;altitude;pressure_sealevel;temperature;humidity
17593;BME280;8915;51.760;14.300;2022-10-17T00:00:58;101474.50;;;11.74;100.00
17593;BME280;8915;51.760;14.300;2022-10-17T00:03:25;101470.16;;;11.73;100.00
17593;BME280;8915;51.760;14.300;2022-10-17T00:05:52;101474.50;;;11.74;100.00
17593;BME280;8915;51.760;14.300;2022-10-17T00:08:18;101478.84;;;11.75;100.00
17593;BME280;8915;51.760;14.300;2022-10-17T00:10:54;101482.31;;;11.75;100.00
17593;BME280;8915;51.760;14.300;2022-10-17T00:13:21;101480.59;;;11.73;100.00
17593;BME280;8915;51.760;14.300;2022-10-17T00:15:47;101484.94;;;11.74;100.00
17593;BME280;8915;51.760;14.300;2022-10-17T00:18:13;101486.72;;;11.72;100.00
17593;BME280;8915;51.760;14.300;2022-10-17T00:20:41;101493.72;;;11.70;100.00
17593;BME280;8915;51.760;14.300;2022-10-17T00:23:07;101490.31;;;11.66;100.00
17593;BME280;8915;51.760;14.300;2022-10-17T00:25:34;101481.56;;;11.67;100.00
17593;BME280;8915;51.760;14.300;2022-10-17T00:28:01;101488.59;;;11.64;100.00
17593;BME280;8915;51.760;14.300;2022-10-17T00:30:27;101488.63;;;11.62;100.00
17593;BME280;8915;51.760;14.300;2022-10-17T00:32:55;101486.03;;;11.61;100.00
17593;BME280;8915;51.760;14.300;2022-10-17T00:35:21;101494.78;;;11.60;100.00
17593;BME280;8915;51.760;14.300;2022-10-17T00:37:49;101489.53;;;11.60;100.00
17593;BME280;8915;51.760;14.300;2022-10-17T00:40:16;101493.00;;;11.62;100.00
17593;BME280;8915;51.760;14.300;2022-10-17T00:42:45;101492.13;;;11.63;100.00
17593;BME280;8915;51.760;14.300;2022-10-17T00:45:16;101488.56;;;11.65;100.00
17593;BME280;8915;51.760;14.300;2022-10-17T00:47:47;101496.41;;;11.65;100.00
17593;BME280;8915;51.760;14.300;2022-10-17T00:50:15;101496.44;;;11.64;100.00
17593;BME280;8915;51.760;14.300;2022-10-17T00:52:42;101495.56;;;11.65;100.00
17593;BME280;8915;51.760;14.300;2022-10-17T00:55:13;101504.28;;;11.64;100.00
17593;BME280;8915;51.760;14.300;2022-10-17T00:57:42;101506.97;;;11.59;100.00
17593;BME280;8915;51.760;14.300;2022-10-17T01:00:11;101505.28;;;11.55;100.00
17593;BME280;8915;51.760;14.300;2022-10-17T01:02:39;101503.63;;;11.49;100.00
17593;BME280;8915;51.760;14.300;2022-10-17T01:05:07;101494.13;;;11.47;100.00
17593;BME280;8915;51.760;14.300;2022-10-17T01:07:34;101495.84;;;11.46;100.00
17593;BME280;8915;51.760;14.300;2022-10-17T01:10:03;101488.94;;;11.42;100.00
17593;BME280;8915;51.760;14.300;2022-10-17T01:15:27;101482.88;;;11.42;100.00
17593;BME280;8915;51.760;14.300;2022-10-17T01:18:06;101481.94;;;11.46;100.00
17593;BME280;8915;51.760;14.300;2022-10-17T01:20:50;101482.72;;;11.51;100.00
17593;BME280;8915;51.760;14.300;2022-10-17T01:23:30;101486.22;;;11.50;100.00
17593;BME280;8915;51.760;14.300;2022-10-17T01:26:13;101490.59;;;11.48;100.00
17593;BME280;8915;51.760;14.300;2022-10-17T01:28:58;101500.22;;;11.46;100.00
17593;BME280;8915;51.760;14.300;2022-10-17T01:31:32;101498.53;;;11.42;100.00
17593;BME280;8915;51.760;14.300;2022-10-17T01:34:07;101494.19;;;11.42;100.00
17593;BME280;8915;51.760;14.300;2022-10-17T01:36:38;101479.47;;;11.36;100.00
17593;BME280;8915;51.760;14.300;2022-10-17T01:39:16;101482.00;;;11.40;100.00
17593;BME280;8915;51.760;14.300;2022-10-17T01:41:49;101479.56;;;11.30;100.00
17593;BME280;8915;51.760;14.300;2022-10-17T01:44:20;101482.19;;;11.29;100.00
17593;BME280;8915;51.760;14.300;2022-10-17T01:46:52;101477.78;;;11.31;100.00
17593;BME280;8915;51.760;14.300;2022-10-17T01:49:22;101483.88;;;11.34;100.00
17593;BME280;8915;51.760;14.300;2022-10-17T01:51:55;101485.59;;;11.32;100.00
17593;BME280;8915;51.760;14.300;2022-10-17T01:54:25;101484.72;;;11.35;100.00
17593;BME280;8915;51.760;14.300;2022-10-17T01:56:56;101489.91;;;11.36;100.00
17593;BME280;8915;51.760;14.300;2022-10-17T01:59:28;101490.78;;;11.37;100.00
17593;BME280;8915;51.760;14.300;2022-10-17T02:01:59;101489.97;;;11.33;100.00
17593;BME280;8915;51.760;14.300;2022-10-17T02:04:27;101482.09;;;11.35;100.00
17593;BME280;8915;51.760;14.300;2022-10-17T02:06:54;101490.81;;;11.34;100.00
17593;BME280;8915;51.760;14.300;2022-10-17T02:09:22;101493.38;;;11.37;100.00
17593;BME280;8915;51.760;14.300;2022-10-17T02:15:03;101491.59;;;11.39;100.00
17593;BME280;8915;51.760;14.300;2022-10-17T02:17:42;101485.53;;;11.39;100.00
17593;BME280;8915;51.760;14.300;2022-10-17T02:20:18;101496.03;;;11.34;100.00
17593;BME280;8915;51.760;14.300;2022-10-17T02:22:48;101491.75;;;11.30;100.00
17593;BME280;8915;51.760;14.300;2022-10-17T02:25:22;101493.56;;;11.25;100.00
17593;BME280;8915;51.760;14.300;2022-10-17T02:28:00;101488.34;;;11.25;100.00
17593;BME280;8915;51.760;14.300;2022-10-17T02:30:31;101491.91;;;11.19;100.00
17593;BME280;8915;51.760;14.300;2022-10-17T02:33:04;101484.16;;;11.13;100.00
17593;BME280;8915;51.760;14.300;2022-10-17T02:35:35;101484.16;;;11.13;100.00
17593;BME280;8915;51.760;14.300;2022-10-17T02:38:04;101488.59;;;11.06;100.00
17593;BME280;8915;51.760;14.300;2022-10-17T02:40:31;101487.78;;;11.03;100.00
17593;BME280;8915;51.760;14.300;2022-10-17T02:42:59;101485.25;;;10.99;100.00
17593;BME280;8915;51.760;14.300;2022-10-17T02:45:28;101479.16;;;10.99;100.00
17593;BME280;8915;51.760;14.300;2022-10-17T02:48:02;101476.50;;;11.01;100.00
17593;BME280;8915;51.760;14.300;2022-10-17T02:50:36;101485.25;;;10.98;100.00
17593;BME280;8915;51.760;14.300;2022-10-17T02:53:08;101482.69;;;10.95;100.00
17593;BME280;8915;51.760;14.300;2022-10-17T02:55:40;101485.41;;;10.89;100.00
17593;BME280;8915;51.760;14.300;2022-10-17T02:58:13;101475.84;;;10.86;100.00
17593;BME280;8915;51.760;14.300;2022-10-17T03:00:41;101482.84;;;10.83;100.00
17593;BME280;8915;51.760;14.300;2022-10-17T03:03:21;101477.50;;;10.92;100.00
17593;BME280;8915;51.760;14.300;2022-10-17T03:05:47;101467.81;;;11.02;100.00
17593;BME280;8915;51.760;14.300;2022-10-17T03:08:14;101470.38;;;11.05;100.00
17593;BME280;8915;51.760;14.300;2022-10-17T03:10:40;101477.34;;;11.04;100.00
17593;BME280;8915;51.760;14.300;2022-10-17T03:13:07;101467.72;;;11.08;100.00
17593;BME280;8915;51.760;14.300;2022-10-17T03:15:37;101480.69;;;11.12;100.00
17593;BME280;8915;51.760;14.300;2022-10-17T03:18:04;101488.41;;;11.20;100.00
17593;BME280;8915;51.760;14.300;2022-10-17T03:20:31;101474.44;;;11.26;100.00
17593;BME280;8915;51.760;14.300;2022-10-17T03:22:58;101477.88;;;11.26;100.00
17593;BME280;8915;51.760;14.300;2022-10-17T03:25:26;101478.69;;;11.30;100.00
17593;BME280;8915;51.760;14.300;2022-10-17T03:27:52;101476.06;;;11.31;100.00
17593;BME280;8915;51.760;14.300;2022-10-17T03:30:19;101482.16;;;11.32;100.00
17593;BME280;8915;51.760;14.300;2022-10-17T03:32:45;101482.97;;;11.34;100.00
17593;BME280;8915;51.760;14.300;2022-10-17T03:35:12;101481.13;;;11.41;100.00
17593;BME280;8915;51.760;14.300;2022-10-17T03:37:40;101479.31;;;11.47;100.00
17593;BME280;8915;51.760;14.300;2022-10-17T03:40:07;101482.72;;;11.51;100.00
17593;BME280;8915;51.760;14.300;2022-10-17T03:42:33;101485.22;;;11.57;100.00
17593;BME280;8915;51.760;14.300;2022-10-17T03:45:00;101483.41;;;11.61;100.00
17593;BME280;8915;51.760;14.300;2022-10-17T03:47:28;101479.00;;;11.64;100.00
17593;BME280;8915;51.760;14.300;2022-10-17T03:49:54;101487.72;;;11.65;100.00
17593;BME280;8915;51.760;14.300;2022-10-17T03:52:21;101485.13;;;11.63;100.00
17593;BME280;8915;51.760;14.300;2022-10-17T03:54:50;101497.25;;;11.66;100.00
17593;BME280;8915;51.760;14.300;2022-10-17T03:57:17;101489.44;;;11.66;100.00
17593;BME280;8915;51.760;14.300;2022-10-17T03:59:45;101493.84;;;11.62;100.00
17593;BME280;8915;51.760;14.300;2022-10-17T04:02:15;101501.56;;;11.70;100.00
17593;BME280;8915;51.760;14.300;2022-10-17T04:04:42;101499.78;;;11.72;100.00
17593;BME280;8915;51.760;14.300;2022-10-17T04:07:09;101505.03;;;11.70;100.00
17593;BME280;8915;51.760;14.300;2022-10-17T04:09:39;101505.81;;;11.77;100.00
17593;BME280;8915;51.760;14.300;2022-10-17T04:12:13;101503.22;;;11.74;100.00
17593;BME280;8915;51.760;14.300;2022-10-17T04:14:39;101499.75;;;11.73;100.00
17593;BME280;8915;51.760;14.300;2022-10-17T04:17:06;101493.72;;;11.70;100.00
17593;BME280;8915;51.760;14.300;2022-10-17T04:19:34;101495.56;;;11.65;100.00
17593;BME280;8915;51.760;14.300;2022-10-17T04:22:01;101493.78;;;11.67;100.00
17593;BME280;8915;51.760;14.300;2022-10-17T04:24:29;101491.22;;;11.62;100.00
17593;BME280;8915;51.760;14.300;2022-10-17T04:27:03;101493.00;;;11.60;100.00
17593;BME280;8915;51.760;14.300;2022-10-17T04:29:33;101496.53;;;11.59;100.00
17593;BME280;8915;51.760;14.300;2022-10-17T04:32:07;101489.59;;;11.56;100.00
17593;BME280;8915;51.760;14.300;2022-10-17T04:34:40;101496.53;;;11.59;100.00
17593;BME280;8915;51.760;14.300;2022-10-17T04:37:07;101491.31;;;11.59;100.00
17593;BME280;8915;51.760;14.300;2022-10-17T04:39:36;101493.91;;;11.59;100.00
17593;BME280;8915;51.760;14.300;2022-10-17T04:42:03;101490.34;;;11.63;100.00
17593;BME280;8915;51.760;14.300;2022-10-17T04:44:30;101490.31;;;11.66;100.00
17593;BME280;8915;51.760;14.300;2022-10-17T04:46:59;101485.94;;;11.67;100.00
17593;BME280;8915;51.760;14.300;2022-10-17T04:49:25;101494.53;;;11.73;100.00
17593;BME280;8915;51.760;14.300;2022-10-17T04:51:57;101493.63;;;11.74;100.00
17593;BME280;8915;51.760;14.300;2022-10-17T04:54:31;101498.84;;;11.76;100.00
17593;BME280;8915;51.760;14.300;2022-10-17T04:57:05;101503.25;;;11.72;100.00
17593;BME280;8915;51.760;14.300;2022-10-17T04:59:31;101497.19;;;11.70;100.00
17593;BME280;8915;51.760;14.300;2022-10-17T05:02:23;101505.84;;;11.74;100.00
17593;BME280;8915;51.760;14.300;2022-10-17T05:04:50;101502.31;;;11.77;100.00
17593;BME280;8915;51.760;14.300;2022-10-17T05:07:18;101496.16;;;11.81;100.00
17593;BME280;8915;51.760;14.300;2022-10-17T05:10:01;101501.38;;;11.81;100.00
17593;BME280;8915;51.760;14.300;2022-10-17T05:12:29;101497.13;;;11.75;100.00
17593;BME280;8915;51.760;14.300;2022-10-17T05:14:56;101496.25;;;11.74;100.00
17593;BME280;8915;51.760;14.300;2022-10-17T05:17:25;101497.97;;;11.75;100.00
17593;BME280;8915;51.760;14.300;2022-10-17T05:19:52;101494.53;;;11.75;100.00
17593;BME280;8915;51.760;14.300;2022-10-17T05:22:18;101492.75;;;11.75;100.00
17593;BME280;8915;51.760;14.300;2022-10-17T05:24:45;101499.75;;;11.75;100.00
17593;BME280;8915;51.760;14.300;2022-10-17T05:27:12;101501.44;;;11.78;100.00
17593;BME280;8915;51.760;14.300;2022-10-17T05:29:38;101497.06;;;11.78;100.00
17593;BME280;8915;51.760;14.300;2022-10-17T05:32:13;101497.88;;;11.80;100.00
17593;BME280;8915;51.760;14.300;2022-10-17T05:34:41;101507.47;;;11.81;100.00
17593;BME280;8915;51.760;14.300;2022-10-17T05:37:09;101510.94;;;11.82;100.00
17593;BME280;8915;51.760;14.300;2022-10-17T05:39:36;101505.78;;;11.79;100.00
17593;BME280;8915;51.760;14.300;2022-10-17T05:42:03;101511.88;;;11.78;100.00
17593;BME280;8915;51.760;14.300;2022-10-17T05:44:29;101511.84;;;11.81;100.00
17593;BME280;8915;51.760;14.300;2022-10-17T05:46:58;101510.94;;;11.80;100.00
17593;BME280;8915;51.760;14.300;2022-10-17T05:49:25;101515.34;;;11.78;100.00
17593;BME280;8915;51.760;14.300;2022-10-17T05:51:53;101519.72;;;11.78;100.00
17593;BME280;8915;51.760;14.300;2022-10-17T05:54:20;101519.66;;;11.82;100.00
17593;BME280;8915;51.760;14.300;2022-10-17T05:56:50;101519.56;;;11.87;100.00
17593;BME280;8915;51.760;14.300;2022-10-17T05:59:16;101526.47;;;11.92;100.00
17593;BME280;8915;51.760;14.300;2022-10-17T06:01:54;101531.59;;;11.99;100.00
17593;BME280;8915;51.760;14.300;2022-10-17T06:04:20;101535.03;;;11.99;100.00
17593;BME280;8915;51.760;14.300;2022-10-17T06:06:47;101531.53;;;12.02;100.00
17593;BME280;8915;51.760;14.300;2022-10-17T06:09:15;101541.88;;;12.08;100.00
17593;BME280;8915;51.760;14.300;2022-10-17T06:11:45;101542.69;;;12.10;100.00
17593;BME280;8915;51.760;14.300;2022-10-17T06:14:12;101545.25;;;12.13;100.00
17593;BME280;8915;51.760;14.300;2022-10-17T06:16:39;101557.47;;;12.14;100.00
17593;BME280;8915;51.760;14.300;2022-10-17T06:19:08;101555.63;;;12.19;100.00
17593;BME280;8915;51.760;14.300;2022-10-17T06:21:35;101560.72;;;12.25;100.00
17593;BME280;8915;51.760;14.300;2022-10-17T06:24:10;101558.84;;;12.34;100.00
17593;BME280;8915;51.760;14.300;2022-10-17T06:26:41;101563.94;;;12.40;100.00
17593;BME280;8915;51.760;14.300;2022-10-17T06:29:10;101559.47;;;12.46;100.00
17593;BME280;8915;51.760;14.300;2022-10-17T06:31:42;101564.59;;;12.53;100.00
17593;BME280;8915;51.760;14.300;2022-10-17T06:34:09;101562.75;;;12.58;100.00
17593;BME280;8915;51.760;14.300;2022-10-17T06:36:37;101565.22;;;12.65;100.00
17593;BME280;8915;51.760;14.300;2022-10-17T06:39:04;101572.06;;;12.71;100.00
17593;BME280;8915;51.760;14.300;2022-10-17T06:41:36;101574.59;;;12.76;100.00
17593;BME280;8915;51.760;14.300;2022-10-17T06:44:08;101576.16;;;12.84;100.00
17593;BME280;8915;51.760;14.300;2022-10-17T06:46:48;101582.09;;;12.93;100.00
17593;BME280;8915;51.760;14.300;2022-10-17T06:49:16;101576.78;;;12.96;100.00
17593;BME280;8915;51.760;14.300;2022-10-17T06:52:08;101579.31;;;13.02;100.00
17593;BME280;8915;51.760;14.300;2022-10-17T06:54:46;101579.13;;;13.10;100.00
17593;BME280;8915;51.760;14.300;2022-10-17T06:57:27;101586.88;;;13.16;100.00
17593;BME280;8915;51.760;14.300;2022-10-17T07:00:17;101591.09;;;13.21;100.00
17593;BME280;8915;51.760;14.300;2022-10-17T07:02:48;101585.72;;;13.27;100.00
17593;BME280;8915;51.760;14.300;2022-10-17T07:05:15;101589.09;;;13.34;100.00
17593;BME280;8915;51.760;14.300;2022-10-17T07:07:43;101590.72;;;13.40;100.00
17593;BME280;8915;51.760;14.300;2022-10-17T07:10:09;101594.06;;;13.47;100.00
17593;BME280;8915;51.760;14.300;2022-10-17T07:12:37;101600.03;;;13.53;100.00
17593;BME280;8915;51.760;14.300;2022-10-17T07:15:05;101600.75;;;13.60;100.00
17593;BME280;8915;51.760;14.300;2022-10-17T07:17:34;101607.56;;;13.67;100.00
17593;BME280;8915;51.760;14.300;2022-10-17T07:20:00;101607.38;;;13.75;100.00
17593;BME280;8915;51.760;14.300;2022-10-17T07:22:29;101594.97;;;13.83;100.00
17593;BME280;8915;51.760;14.300;2022-10-17T07:24:56;101597.31;;;13.94;100.00
17593;BME280;8915;51.760;14.300;2022-10-17T07:27:30;101598.81;;;14.04;100.00
17593;BME280;8915;51.760;14.300;2022-10-17T07:29:57;101592.56;;;14.10;100.00
17593;BME280;8915;51.760;14.300;2022-10-17T07:32:37;101594.94;;;14.19;100.00
17593;BME280;8915;51.760;14.300;2022-10-17T07:35:06;101589.41;;;14.30;100.00
17593;BME280;8915;51.760;14.300;2022-10-17T07:37:32;101595.31;;;14.38;100.00
17593;BME280;8915;51.760;14.300;2022-10-17T07:39:59;101596.84;;;14.47;100.00
17593;BME280;8915;51.760;14.300;2022-10-17T07:42:26;101600.97;;;14.55;100.00
17593;BME280;8915;51.760;14.300;2022-10-17T07:44:53;101602.53;;;14.64;100.00
17593;BME280;8915;51.760;14.300;2022-10-17T07:47:21;101602.25;;;14.73;100.00
17593;BME280;8915;51.760;14.300;2022-10-17T07:49:49;101601.09;;;14.84;100.00
17593;BME280;8915;51.760;14.300;2022-10-17T07:52:16;101604.38;;;14.92;100.00
17593;BME280;8915;51.760;14.300;2022-10-17T07:54:43;101604.09;;;15.01;100.00
17593;BME280;8915;51.760;14.300;2022-10-17T07:57:09;101610.78;;;15.13;100.00
17593;BME280;8915;51.760;14.300;2022-10-17T07:59:37;101615.88;;;15.18;100.00
17593;BME280;8915;51.760;14.300;2022-10-17T08:02:04;101606.03;;;15.24;100.00
17593;BME280;8915;51.760;14.300;2022-10-17T08:04:32;101608.38;;;15.33;100.00
17593;BME280;8915;51.760;14.300;2022-10-17T08:07:01;101608.97;;;15.43;100.00
17593;BME280;8915;51.760;14.300;2022-10-17T08:09:28;101588.47;;;15.55;100.00
17593;BME280;8915;51.760;14.300;2022-10-17T08:11:54;101595.06;;;15.68;100.00
17593;BME280;8915;51.760;14.300;2022-10-17T08:14:21;101597.34;;;15.80;100.00
17593;BME280;8915;51.760;14.300;2022-10-17T08:16:47;101600.53;;;15.90;100.00
17593;BME280;8915;51.760;14.300;2022-10-17T08:19:14;101602.75;;;16.02;100.00
17593;BME280;8915;51.760;14.300;2022-10-17T08:21:40;101594.56;;;16.12;100.00
17593;BME280;8915;51.760;14.300;2022-10-17T08:24:10;101603.94;;;16.19;100.00
17593;BME280;8915;51.760;14.300;2022-10-17T08:26:36;101602.97;;;16.21;100.00
17593;BME280;8915;51.760;14.300;2022-10-17T08:29:03;101605.50;;;16.24;100.00
17593;BME280;8915;51.760;14.300;2022-10-17T08:31:29;101606.34;;;16.25;100.00
17593;BME280;8915;51.760;14.300;2022-10-17T08:33:55;101603.56;;;16.30;100.00
17593;BME280;8915;51.760;14.300;2022-10-17T08:36:22;101600.84;;;16.33;100.00
17593;BME280;8915;51.760;14.300;2022-10-17T08:38:48;101613.72;;;16.40;100.00
17593;BME280;8915;51.760;14.300;2022-10-17T08:41:25;101609.13;;;16.47;100.00
17593;BME280;8915;51.760;14.300;2022-10-17T08:44:04;101605.25;;;16.57;100.00
17593;BME280;8915;51.760;14.300;2022-10-17T08:46:36;101614.34;;;16.72;100.00
17593;BME280;8915;51.760;14.300;2022-10-17T08:49:08;101608.66;;;16.84;100.00
17593;BME280;8915;51.760;14.300;2022-10-17T08:51:43;101609.84;;;17.01;100.00
17593;BME280;8915;51.760;14.300;2022-10-17T08:54:16;101615.66;;;17.09;100.00
17593;BME280;8915;51.760;14.300;2022-10-17T08:56:48;101611.59;;;17.24;100.00
17593;BME280;8915;51.760;14.300;2022-10-17T08:59:17;101618.09;;;17.37;100.00
17593;BME280;8915;51.760;14.300;2022-10-17T09:01:49;101622.88;;;17.50;100.00
17593;BME280;8915;51.760;14.300;2022-10-17T09:04:39;101620.72;;;17.61;100.00
17593;BME280;8915;51.760;14.300;2022-10-17T09:07:12;101616.84;;;17.70;100.00
17593;BME280;8915;51.760;14.300;2022-10-17T09:09:49;101617.31;;;17.79;100.00
17593;BME280;8915;51.760;14.300;2022-10-17T09:12:21;101618.91;;;17.84;100.00
17593;BME280;8915;51.760;14.300;2022-10-17T09:15:07;101627.66;;;17.86;100.00
17593;BME280;8915;51.760;14.300;2022-10-17T09:17:44;101627.66;;;17.86;100.00
17593;BME280;8915;51.760;14.300;2022-10-17T09:20:18;101624.38;;;17.79;100.00
17593;BME280;8915;51.760;14.300;2022-10-17T09:22:50;101611.50;;;17.71;100.00
17593;BME280;8915;51.760;14.300;2022-10-17T09:25:19;101621.19;;;17.71;100.00
17593;BME280;8915;51.760;14.300;2022-10-17T09:27:48;101622.78;;;17.75;100.00
17593;BME280;8915;51.760;14.300;2022-10-17T09:30:24;101617.31;;;17.79;100.00
17593;BME280;8915;51.760;14.300;2022-10-17T09:32:53;101617.19;;;17.83;100.00
17593;BME280;8915;51.760;14.300;2022-10-17T09:35:21;101616.09;;;17.88;100.00
17593;BME280;8915;51.760;14.300;2022-10-17T09:37:48;101622.06;;;17.93;100.00
17593;BME280;8915;51.760;14.300;2022-10-17T09:40:18;101620.09;;;17.98;100.00
17593;BME280;8915;51.760;14.300;2022-10-17T09:42:49;101625.13;;;18.05;100.00
17593;BME280;8915;51.760;14.300;2022-10-17T09:45:17;101624.00;;;18.10;100.00
17593;BME280;8915;51.760;14.300;2022-10-17T09:47:54;101622.09;;;18.14;100.00
17593;BME280;8915;51.760;14.300;2022-10-17T09:50:25;101628.66;;;18.26;100.00
17593;BME280;8915;51.760;14.300;2022-10-17T09:52:53;101631.13;;;18.29;100.00
17593;BME280;8915;51.760;14.300;2022-10-17T09:55:25;101622.97;;;18.35;100.00
17593;BME280;8915;51.760;14.300;2022-10-17T09:57:57;101624.34;;;18.44;100.00
17593;BME280;8915;51.760;14.300;2022-10-17T10:00:26;101629.09;;;18.56;100.00
17593;BME280;8915;51.760;14.300;2022-10-17T10:03:08;101633.25;;;18.62;100.00
17593;BME280;8915;51.760;14.300;2022-10-17T10:05:34;101628.69;;;18.65;100.00
17593;BME280;8915;51.760;14.300;2022-10-17T10:08:03;101623.00;;;18.74;100.00
17593;BME280;8915;51.760;14.300;2022-10-17T10:10:31;101627.22;;;18.79;100.00
17593;BME280;8915;51.760;14.300;2022-10-17T10:13:04;101630.13;;;18.93;100.00
17593;BME280;8915;51.760;14.300;2022-10-17T10:15:34;101623.34;;;19.06;100.00
17593;BME280;8915;51.760;14.300;2022-10-17T10:18:02;101629.22;;;19.13;100.00
17593;BME280;8915;51.760;14.300;2022-10-17T10:20:34;101638.94;;;19.13;100.00
17593;BME280;8915;51.760;14.300;2022-10-17T10:23:05;101636.09;;;19.17;100.00
17593;BME280;8915;51.760;14.300;2022-10-17T10:25:32;101635.72;;;19.25;100.00
17593;BME280;8915;51.760;14.300;2022-10-17T10:28:00;101638.88;;;19.33;100.00
17593;BME280;8915;51.760;14.300;2022-10-17T10:30:29;101640.13;;;19.43;100.00
17593;BME280;8915;51.760;14.300;2022-10-17T10:32:58;101630.97;;;19.51;100.00
17593;BME280;8915;51.760;14.300;2022-10-17T10:35:31;101628.97;;;19.56;100.00
17593;BME280;8915;51.760;14.300;2022-10-17T10:37:58;101619.19;;;19.58;100.00
17593;BME280;8915;51.760;14.300;2022-10-17T10:40:30;101605.44;;;19.68;100.00
17593;BME280;8915;51.760;14.300;2022-10-17T10:42:58;101605.03;;;19.78;100.00
17593;BME280;8915;51.760;14.300;2022-10-17T10:45:27;101603.16;;;19.80;100.00
17593;BME280;8915;51.760;14.300;2022-10-17T10:47:56;101611.94;;;19.80;100.00
17593;BME280;8915;51.760;14.300;2022-10-17T10:50:27;101609.63;;;19.92;100.00
17593;BME280;8915;51.760;14.300;2022-10-17T10:53:12;101610.13;;;20.00;100.00
17593;BME280;8915;51.760;14.300;2022-10-17T10:55:47;101603.72;;;20.04;100.00
17593;BME280;8915;51.760;14.300;2022-10-17T10:58:25;101607.78;;;20.11;100.00
17593;BME280;8915;51.760;14.300;2022-10-17T11:00:53;101608.13;;;20.21;100.00
17593;BME280;8915;51.760;14.300;2022-10-17T11:03:25;101606.75;;;20.31;100.00
17593;BME280;8915;51.760;14.300;2022-10-17T11:05:56;101607.97;;;20.41;100.00
17593;BME280;8915;51.760;14.300;2022-10-17T11:08:28;101608.03;;;20.57;100.00
17593;BME280;8915;51.760;14.300;2022-10-17T11:11:05;101603.75;;;20.72;100.00
17593;BME280;8915;51.760;14.300;2022-10-17T11:13:38;101608.56;;;20.82;100.00
17593;BME280;8915;51.760;14.300;2022-10-17T11:16:15;101610.38;;;20.81;100.00
17593;BME280;8915;51.760;14.300;2022-10-17T11:18:49;101609.09;;;20.88;100.00
17593;BME280;8915;51.760;14.300;2022-10-17T11:21:21;101607.47;;;21.02;100.00
17593;BME280;8915;51.760;14.300;2022-10-17T11:23:58;101591.94;;;21.11;100.00
17593;BME280;8915;51.760;14.300;2022-10-17T11:26:30;101594.75;;;21.24;100.00
17593;BME280;8915;51.760;14.300;2022-10-17T11:29:03;101595.94;;;21.34;100.00
17593;BME280;8915;51.760;14.300;2022-10-17T11:31:33;101594.06;;;21.52;100.00
17593;BME280;8915;51.760;14.300;2022-10-17T11:34:07;101607.53;;;21.65;100.00
17593;BME280;8915;51.760;14.300;2022-10-17T11:36:39;101604.41;;;21.73;100.00
17593;BME280;8915;51.760;14.300;2022-10-17T11:39:13;101601.66;;;21.74;100.00
17593;BME280;8915;51.760;14.300;2022-10-17T11:41:43;101598.72;;;21.79;100.00
17593;BME280;8915;51.760;14.300;2022-10-17T11:44:18;101599.31;;;21.84;100.00
17593;BME280;8915;51.760;14.300;2022-10-17T11:46:48;101604.28;;;21.90;100.00
17593;BME280;8915;51.760;14.300;2022-10-17T11:49:19;101599.06;;;21.89;100.00
17593;BME280;8915;51.760;14.300;2022-10-17T11:51:50;101601.34;;;21.95;100.00
17593;BME280;8915;51.760;14.300;2022-10-17T11:54:22;101600.31;;;21.98;100.00
17593;BME280;8915;51.760;14.300;2022-10-17T11:57:05;101590.63;;;21.97;100.00
17593;BME280;8915;51.760;14.300;2022-10-17T11:59:47;101589.13;;;21.92;100.00
17593;BME280;8915;51.760;14.300;2022-10-17T12:02:24;101587.53;;;21.90;100.00
17593;BME280;8915;51.760;14.300;2022-10-17T12:04:58;101574.03;;;21.93;100.00
17593;BME280;8915;51.760;14.300;2022-10-17T12:07:35;101575.59;;;21.97;100.00
17593;BME280;8915;51.760;14.300;2022-10-17T12:10:15;101576.16;;;22.02;99.37
17593;BME280;8915;51.760;14.300;2022-10-17T12:12:44;101573.97;;;22.09;99.00
17593;BME280;8915;51.760;14.300;2022-10-17T12:15:28;101571.81;;;22.16;96.41
17593;BME280;8915;51.760;14.300;2022-10-17T12:17:56;101570.50;;;22.23;94.22
17593;BME280;8915;51.760;14.300;2022-10-17T12:20:34;101568.94;;;22.35;88.61
17593;BME280;8915;51.760;14.300;2022-10-17T12:23:13;101562.56;;;22.37;87.57
17593;BME280;8915;51.760;14.300;2022-10-17T12:25:48;101567.25;;;22.48;86.24
17593;BME280;8915;51.760;14.300;2022-10-17T12:28:19;101564.59;;;22.48;88.52
17593;BME280;8915;51.760;14.300;2022-10-17T12:30:49;101559.81;;;22.53;89.69
17593;BME280;8915;51.760;14.300;2022-10-17T12:33:18;101556.06;;;22.57;92.34
17593;BME280;8915;51.760;14.300;2022-10-17T12:35:49;101557.56;;;22.61;89.50
17593;BME280;8915;51.760;14.300;2022-10-17T12:38:22;101556.97;;;22.71;90.27
17593;BME280;8915;51.760;14.300;2022-10-17T12:40:59;101559.00;;;22.81;89.07
17593;BME280;8915;51.760;14.300;2022-10-17T12:43:45;101557.00;;;22.85;88.29
17593;BME280;8915;51.760;14.300;2022-10-17T12:46:12;101563.16;;;22.85;83.25
17593;BME280;8915;51.760;14.300;2022-10-17T12:49:02;101564.00;;;22.86;83.60
17593;BME280;8915;51.760;14.300;2022-10-17T12:54:38;101557.00;;;22.85;84.42
17593;BME280;8915;51.760;14.300;2022-10-17T12:57:14;101552.13;;;22.77;84.52
17593;BME280;8915;51.760;14.300;2022-10-17T12:59:44;101554.03;;;22.75;82.20
17593;BME280;8915;51.760;14.300;2022-10-17T13:02:15;101556.88;;;22.72;80.78
17593;BME280;8915;51.760;14.300;2022-10-17T13:04:44;101548.66;;;22.62;80.23
17593;BME280;8915;51.760;14.300;2022-10-17T13:07:17;101557.16;;;22.53;82.78